Time;durP1;ratioP1;P1;durP2;ratioP2;P2;SDS_P1;SDS_P2;PMS_P1;PMS_P2;Temp;Humidity;BMP_temperature;BMP_pressure;BME280_temperature;BME280_humidity;BME280_pressure;Samples;Min_cycle;Max_cycle;Signal;HPM_P1;HPM_P2
2022/06/23 00:01:50;;;;;;;4.07;2.10;;;22.20;52.90;;;;;;5033531;28;20604;-79
2022/06/23 00:04:20;;;;;;;3.43;2.87;;;22.10;53.20;;;;;;5037134;28;20576;-79
2022/06/23 00:07:04;;;;;;;4.70;3.37;;;22.10;53.10;;;;;;5035249;28;20569;-79
2022/06/23 00:09:35;;;;;;;3.57;2.70;;;22.10;53.40;;;;;;5034448;28;20571;-80
2022/06/23 00:12:13;;;;;;;3.63;3.00;;;22.10;53.60;;;;;;5033704;28;20667;-80
2022/06/23 00:14:39;;;;;;;4.20;2.37;;;22.00;53.60;;;;;;5034340;28;20573;-80
2022/06/23 00:17:29;;;;;;;5.03;2.73;;;22.10;53.60;;;;;;5034059;28;21116;-80
2022/06/23 00:19:58;;;;;;;3.00;1.90;;;22.00;54.20;;;;;;5024605;28;20639;-80
2022/06/23 00:22:27;;;;;;;2.83;1.63;;;22.00;53.90;;;;;;5033174;28;20671;-80
2022/06/23 00:24:56;;;;;;;3.10;1.80;;;22.00;54.10;;;;;;5032577;28;20595;-80
2022/06/23 00:27:28;;;;;;;3.30;1.50;;;22.00;54.20;;;;;;5033460;28;20560;-80
2022/06/23 00:30:00;;;;;;;5.23;2.53;;;22.10;54.50;;;;;;5032069;28;20608;-79
2022/06/23 00:32:26;;;;;;;2.03;1.17;;;22.10;54.60;;;;;;5032943;28;20692;-80
2022/06/23 00:35:00;;;;;;;3.83;1.30;;;22.20;54.70;;;;;;5033228;28;21120;-79
2022/06/23 00:37:28;;;;;;;2.27;1.10;;;22.20;55.00;;;;;;5033313;28;20586;-80
2022/06/23 00:40:01;;;;;;;2.40;0.90;;;22.30;55.00;;;;;;5033855;28;20604;-80
2022/06/23 00:42:31;;;;;;;4.40;1.30;;;22.40;55.60;;;;;;5032670;28;20627;-80
2022/06/23 00:45:09;;;;;;;5.33;1.00;;;22.50;54.80;;;;;;5032379;28;20664;-80
2022/06/23 00:47:47;;;;;;;1.60;0.80;;;22.50;54.70;;;;;;5033015;28;20634;-80
2022/06/23 00:50:28;;;;;;;2.93;1.00;;;22.60;54.90;;;;;;5032618;28;21527;-80
2022/06/23 00:53:11;;;;;;;4.33;1.40;;;22.70;54.80;;;;;;5031723;28;20689;-80
2022/06/23 00:55:53;;;;;;;1.60;0.73;;;22.70;55.10;;;;;;5032712;28;20663;-80
2022/06/23 00:58:30;;;;;;;2.77;1.00;;;22.80;54.80;;;;;;5031339;28;20573;-81
2022/06/23 01:01:05;;;;;;;2.57;0.90;;;22.80;55.10;;;;;;5031872;28;20600;-80
2022/06/23 01:03:37;;;;;;;2.43;1.17;;;22.90;54.80;;;;;;5032341;28;20610;-81
2022/06/23 01:06:29;;;;;;;2.97;1.27;;;22.90;54.90;;;;;;5014963;28;20580;-80
2022/06/23 01:09:04;;;;;;;2.13;0.77;;;22.90;54.80;;;;;;5031481;28;20943;-80
2022/06/23 01:11:43;;;;;;;2.30;1.00;;;22.90;54.70;;;;;;5031798;28;20660;-80
2022/06/23 01:14:28;;;;;;;2.27;0.90;;;22.90;54.70;;;;;;5032460;28;20728;-80
2022/06/23 01:17:04;;;;;;;3.70;1.10;;;22.90;54.60;;;;;;5033584;28;21153;-80
2022/06/23 01:19:43;;;;;;;1.60;1.10;;;22.90;54.70;;;;;;5032065;28;20600;-80
2022/06/23 01:22:24;;;;;;;2.27;1.10;;;22.90;54.90;;;;;;5032198;28;20997;-78
2022/06/23 01:24:53;;;;;;;2.70;1.10;;;22.90;55.20;;;;;;5032471;28;20580;-80
2022/06/23 01:27:48;;;;;;;2.47;1.10;;;22.90;55.00;;;;;;5032294;28;21123;-80
2022/06/23 01:30:14;;;;;;;2.50;1.37;;;22.80;55.00;;;;;;5030763;28;20622;-80
2022/06/23 01:32:47;;;;;;;2.00;1.23;;;22.80;55.00;;;;;;5031561;28;20620;-80
2022/06/23 01:35:25;;;;;;;2.30;1.47;;;22.80;55.70;;;;;;5032255;28;20571;-80
2022/06/23 01:37:56;;;;;;;2.30;1.00;;;22.80;55.40;;;;;;5032140;28;21128;-80
2022/06/23 01:40:47;;;;;;;1.90;1.03;;;22.80;55.30;;;;;;5030308;28;20707;-80
2022/06/23 01:43:25;;;;;;;1.70;1.00;;;22.70;55.50;;;;;;5030563;28;20573;-81
2022/06/23 01:46:00;;;;;;;1.80;1.10;;;22.70;55.40;;;;;;5031924;28;20568;-80
2022/06/23 01:48:51;;;;;;;2.90;1.13;;;22.70;55.40;;;;;;5030547;28;20580;-80
2022/06/23 01:51:26;;;;;;;2.37;1.03;;;22.70;56.10;;;;;;5030896;28;20642;-80
2022/06/23 01:53:54;;;;;;;2.97;1.03;;;22.60;56.20;;;;;;5031201;28;20627;-80
2022/06/23 01:56:32;;;;;;;4.27;1.40;;;22.60;56.10;;;;;;5031638;28;20905;-80
2022/06/23 01:59:14;;;;;;;4.27;1.10;;;22.60;56.40;;;;;;5031181;28;20556;-80
2022/06/23 02:02:16;;;;;;;1.83;0.80;;;22.60;57.10;;;;;;5031189;28;21159;-80
2022/06/23 02:05:00;;;;;;;1.80;1.00;;;22.60;56.60;;;;;;5032116;28;20655;-81
2022/06/23 02:07:41;;;;;;;2.13;1.03;;;22.50;56.80;;;;;;5031747;28;20571;-80
2022/06/23 02:10:28;;;;;;;2.00;0.90;;;22.50;57.40;;;;;;5031731;28;21005;-80
2022/06/23 02:13:09;;;;;;;2.23;1.13;;;22.50;56.90;;;;;;5030274;28;20673;-80
2022/06/23 02:16:08;;;;;;;1.93;1.00;;;22.40;56.90;;;;;;5014126;28;20687;-80
2022/06/23 02:18:56;;;;;;;1.80;0.87;;;22.40;57.20;;;;;;5030402;28;20990;-79
2022/06/23 02:21:42;;;;;;;1.90;1.00;;;22.40;57.00;;;;;;5029666;28;20632;-79
2022/06/23 02:24:36;;;;;;;1.90;1.00;;;22.40;57.60;;;;;;5030430;28;20672;-79
2022/06/23 02:27:15;;;;;;;2.63;1.10;;;22.40;57.60;;;;;;5004000;28;20600;-79
2022/06/23 02:29:50;;;;;;;1.90;1.13;;;22.40;57.40;;;;;;5033203;28;20651;-80
2022/06/23 02:32:29;;;;;;;2.23;1.07;;;22.40;57.70;;;;;;5031314;28;20576;-79
2022/06/23 02:35:20;;;;;;;1.60;0.90;;;22.30;57.80;;;;;;5031669;28;20572;-75
2022/06/23 02:38:10;;;;;;;2.80;1.20;;;22.30;57.60;;;;;;5031435;28;20565;-74
2022/06/23 02:40:50;;;;;;;3.17;1.00;;;22.30;57.60;;;;;;5030460;28;20948;-74
2022/06/23 02:43:31;;;;;;;1.87;1.13;;;22.30;58.00;;;;;;5031355;28;20564;-74
2022/06/23 02:46:28;;;;;;;2.30;1.13;;;22.30;57.90;;;;;;5030083;28;20564;-74
2022/06/23 02:49:33;;;;;;;2.20;0.90;;;22.30;58.40;;;;;;5031455;28;20576;-74
2022/06/23 02:52:01;;;;;;;2.53;1.50;;;22.20;57.80;;;;;;5029978;28;20600;-74
2022/06/23 02:54:57;;;;;;;2.80;0.90;;;22.30;58.00;;;;;;5031056;28;20647;-74
2022/06/23 02:57:58;;;;;;;1.47;0.90;;;22.30;58.40;;;;;;5031345;28;20575;-74
2022/06/23 03:00:51;;;;;;;2.43;1.10;;;22.30;58.10;;;;;;5030890;28;20591;-74
2022/06/23 03:03:25;;;;;;;2.00;1.10;;;22.30;58.40;;;;;;5022898;28;20588;-74
2022/06/23 03:06:21;;;;;;;1.90;0.87;;;22.30;58.30;;;;;;5015501;28;20596;-74
2022/06/23 03:09:05;;;;;;;1.90;0.80;;;22.30;58.50;;;;;;5035248;28;20572;-74
2022/06/23 03:11:53;;;;;;;1.93;0.80;;;22.30;58.30;;;;;;5034053;28;20607;-74
2022/06/23 03:14:22;;;;;;;1.90;1.20;;;22.20;58.50;;;;;;5034914;28;21084;-74
2022/06/23 03:16:54;;;;;;;1.50;1.10;;;22.30;58.50;;;;;;5034857;28;20568;-74
2022/06/23 03:19:29;;;;;;;1.90;0.90;;;22.20;58.80;;;;;;5034595;28;20575;-74
2022/06/23 03:22:05;;;;;;;2.77;1.40;;;22.20;58.80;;;;;;5034071;28;20563;-74
2022/06/23 03:24:41;;;;;;;3.30;1.07;;;22.20;58.60;;;;;;5034584;28;20931;-74
2022/06/23 03:27:22;;;;;;;1.57;0.97;;;22.20;58.70;;;;;;5034607;28;20626;-74
2022/06/23 03:29:58;;;;;;;1.97;1.13;;;22.20;59.00;;;;;;5034318;28;20615;-74
2022/06/23 03:32:35;;;;;;;2.40;0.90;;;22.20;59.10;;;;;;5032982;28;20926;-74
2022/06/23 03:35:26;;;;;;;1.93;0.97;;;22.20;59.10;;;;;;5033316;28;20563;-74
2022/06/23 03:37:55;;;;;;;2.03;1.00;;;22.20;59.80;;;;;;5034311;28;20564;-74
2022/06/23 03:43:31;;;;;;;2.30;1.10;;;22.20;59.40;;;;;;5016495;28;20612;-74
2022/06/23 03:46:12;;;;;;;6.43;1.00;;;22.20;59.70;;;;;;5034335;28;20576;-74
2022/06/23 03:48:52;;;;;;;2.13;0.90;;;22.20;59.50;;;;;;5034197;28;20596;-74
2022/06/23 03:51:27;;;;;;;2.60;0.97;;;22.20;59.50;;;;;;5033334;28;20623;-74
2022/06/23 03:54:00;;;;;;;2.13;0.87;;;22.20;59.70;;;;;;5033849;28;21209;-74
2022/06/23 03:56:33;;;;;;;1.80;0.90;;;22.20;59.60;;;;;;5034110;28;20579;-73
2022/06/23 03:59:17;;;;;;;1.50;1.00;;;22.30;59.70;;;;;;5032864;28;20651;-74
2022/06/23 04:01:52;;;;;;;3.00;1.10;;;22.30;59.90;;;;;;5032016;28;20618;-74
2022/06/23 04:04:25;;;;;;;1.90;1.00;;;22.30;59.90;;;;;;5033883;28;20574;-74
2022/06/23 04:06:52;;;;;;;2.07;1.00;;;22.30;60.00;;;;;;5016006;28;20584;-74
2022/06/23 04:09:34;;;;;;;1.97;1.20;;;22.30;60.60;;;;;;5016048;28;20622;-74
2022/06/23 04:12:15;;;;;;;2.50;1.30;;;22.30;60.70;;;;;;5033220;28;20563;-74
2022/06/23 04:15:10;;;;;;;3.03;1.00;;;22.30;60.70;;;;;;5033693;28;20677;-74
2022/06/23 04:17:46;;;;;;;2.83;1.13;;;22.30;61.10;;;;;;5032101;28;20579;-74
2022/06/23 04:20:37;;;;;;;2.20;1.30;;;22.30;61.00;;;;;;5033170;28;20645;-74
2022/06/23 04:23:27;;;;;;;1.40;0.90;;;22.30;61.10;;;;;;5033475;28;20569;-74
2022/06/23 04:26:17;;;;;;;2.43;1.47;;;22.30;62.10;;;;;;5033686;28;20935;-75
2022/06/23 04:28:50;;;;;;;1.90;1.10;;;22.30;62.30;;;;;;5033433;28;20571;-75
2022/06/23 04:31:23;;;;;;;2.73;1.17;;;22.30;61.40;;;;;;5032616;28;20628;-75
2022/06/23 04:33:49;;;;;;;2.00;1.10;;;22.40;61.70;;;;;;5033345;28;20620;-74
2022/06/23 04:36:24;;;;;;;2.77;1.27;;;22.40;61.80;;;;;;5031843;28;20565;-74
2022/06/23 04:38:52;;;;;;;2.57;1.07;;;22.40;62.20;;;;;;5032104;28;20564;-74
2022/06/23 04:41:44;;;;;;;4.07;1.00;;;22.50;62.50;;;;;;5032298;28;20644;-74
2022/06/23 04:44:26;;;;;;;4.73;1.20;;;22.40;62.90;;;;;;5032884;28;20592;-74
2022/06/23 04:46:59;;;;;;;2.80;1.10;;;22.50;62.70;;;;;;5033452;28;20607;-74
2022/06/23 04:49:31;;;;;;;3.10;1.60;;;22.50;63.00;;;;;;5031792;28;20925;-75
2022/06/23 04:52:15;;;;;;;4.23;1.60;;;22.60;63.10;;;;;;5032209;28;21189;-74
2022/06/23 04:54:50;;;;;;;1.80;1.00;;;22.60;63.00;;;;;;5032964;28;20620;-76
2022/06/23 04:57:19;;;;;;;1.80;1.10;;;22.60;63.10;;;;;;5032004;28;21155;-75
2022/06/23 04:59:49;;;;;;;2.40;1.10;;;22.60;63.40;;;;;;5032437;28;20699;-75
2022/06/23 05:02:47;;;;;;;2.53;1.17;;;22.70;63.60;;;;;;5032491;28;21108;-76
2022/06/23 05:05:18;;;;;;;3.63;1.20;;;22.70;63.80;;;;;;5032592;28;20565;-76
2022/06/23 05:07:51;;;;;;;2.40;1.13;;;22.80;63.90;;;;;;5033000;28;20579;-76
2022/06/23 05:10:23;;;;;;;1.80;1.00;;;22.90;64.20;;;;;;5031325;28;20604;-75
2022/06/23 05:12:54;;;;;;;2.27;1.37;;;22.90;64.40;;;;;;5032044;28;20624;-75
2022/06/23 05:15:43;;;;;;;2.17;1.13;;;23.00;64.60;;;;;;5032627;28;20556;-76
2022/06/23 05:18:15;;;;;;;2.47;1.30;;;23.10;64.70;;;;;;5032385;28;20635;-75
2022/06/23 05:20:53;;;;;;;3.30;1.10;;;23.20;64.70;;;;;;5031363;28;20651;-75
2022/06/23 05:23:29;;;;;;;3.10;1.27;;;23.30;64.90;;;;;;5031186;28;20942;-75
2022/06/23 05:26:04;;;;;;;3.00;1.33;;;23.40;64.80;;;;;;5031217;28;20603;-75
2022/06/23 05:28:35;;;;;;;4.27;1.50;;;23.40;64.60;;;;;;5031766;28;20591;-75
2022/06/23 05:31:07;;;;;;;2.83;1.27;;;23.40;64.70;;;;;;5031504;28;20704;-76
2022/06/23 05:33:41;;;;;;;3.50;1.60;;;23.50;64.90;;;;;;5031081;28;20681;-75
2022/06/23 05:36:19;;;;;;;2.10;1.20;;;23.50;65.30;;;;;;5032027;28;20564;-75
2022/06/23 05:38:48;;;;;;;2.60;1.17;;;23.60;65.70;;;;;;5014437;28;20918;-75
2022/06/23 05:41:32;;;;;;;3.63;1.60;;;23.80;66.00;;;;;;5031106;28;20596;-74
2022/06/23 05:43:58;;;;;;;3.20;1.20;;;23.90;66.40;;;;;;5030738;28;20572;-75
2022/06/23 05:46:28;;;;;;;2.17;1.57;;;24.20;67.10;;;;;;5032082;28;20631;-75
2022/06/23 05:49:01;;;;;;;3.63;1.20;;;24.60;67.30;;;;;;5030801;28;20607;-75
2022/06/23 05:51:56;;;;;;;3.80;1.37;;;25.00;67.80;;;;;;5013483;28;21047;-75
2022/06/23 05:54:34;;;;;;;3.07;1.30;;;25.50;68.00;;;;;;5031980;28;20630;-75
2022/06/23 05:57:33;;;;;;;4.33;1.20;;;26.20;67.30;;;;;;5031933;28;20583;-74
2022/06/23 06:00:15;;;;;;;2.03;1.00;;;26.80;65.70;;;;;;5028448;28;20739;-75
2022/06/23 06:02:59;;;;;;;2.40;1.13;;;27.70;65.80;;;;;;5033802;28;20683;-75
2022/06/23 06:05:48;;;;;;;3.33;1.27;;;28.30;64.00;;;;;;5031615;28;21009;-73
2022/06/23 06:08:31;;;;;;;2.80;1.33;;;29.20;64.40;;;;;;5023261;28;21007;-73
2022/06/23 06:11:00;;;;;;;2.40;1.43;;;29.90;60.60;;;;;;5009772;28;20645;-74
2022/06/23 06:13:31;;;;;;;2.37;1.00;;;30.50;59.80;;;;;;5017788;28;21035;-75
2022/06/23 06:15:59;;;;;;;3.03;1.50;;;31.10;57.60;;;;;;5031147;28;20603;-75
2022/06/23 06:18:34;;;;;;;4.20;1.40;;;31.30;56.90;;;;;;5029653;28;20577;-75
2022/06/23 06:21:03;;;;;;;3.20;1.20;;;31.60;55.30;;;;;;5029899;28;21361;-75
2022/06/23 06:23:54;;;;;;;3.43;1.40;;;31.90;55.00;;;;;;5031341;28;21203;-74
2022/06/23 06:26:39;;;;;;;3.80;1.40;;;31.90;54.70;;;;;;5012396;28;20611;-75
2022/06/23 06:29:23;;;;;;;2.50;1.20;;;32.30;54.40;;;;;;5031061;28;20582;-74
2022/06/23 06:31:59;;;;;;;1.93;1.23;;;32.70;54.40;;;;;;5030527;28;20593;-75
2022/06/23 06:34:44;;;;;;;3.33;1.27;;;33.00;52.60;;;;;;5031220;28;20625;-74
2022/06/23 06:37:13;;;;;;;2.87;1.20;;;33.10;52.00;;;;;;5031408;28;20574;-74
2022/06/23 06:39:50;;;;;;;2.57;1.20;;;33.30;52.20;;;;;;5031337;28;20965;-75
2022/06/23 06:42:17;;;;;;;3.40;1.30;;;33.50;52.30;;;;;;5032466;28;20664;-75
2022/06/23 06:44:48;;;;;;;2.77;1.40;;;33.80;52.10;;;;;;5032582;28;20579;-75
2022/06/23 06:47:24;;;;;;;3.70;1.47;;;34.20;51.90;;;;;;5037460;28;20580;-76
2022/06/23 06:49:53;;;;;;;2.53;1.60;;;34.60;50.80;;;;;;5035047;28;20688;-74
2022/06/23 06:52:19;;;;;;;3.87;1.87;;;34.70;49.60;;;;;;5034730;28;20598;-75
2022/06/23 06:55:07;;;;;;;1.90;1.20;;;35.00;49.30;;;;;;5033512;28;21178;-74
2022/06/23 06:57:32;;;;;;;2.90;1.53;;;34.90;49.20;;;;;;5035029;28;20591;-75
2022/06/23 07:00:04;;;;;;;3.17;1.40;;;35.10;48.60;;;;;;5049596;28;20703;-75
2022/06/23 07:02:46;;;;;;;2.53;1.53;;;35.10;48.20;;;;;;5035001;28;20177;-74
2022/06/23 07:05:40;;;;;;;4.53;1.50;;;35.20;48.00;;;;;;5035168;28;20680;-75
2022/06/23 07:08:46;;;;;;;5.93;1.30;;;35.00;47.80;;;;;;5033981;28;20924;-74
2022/06/23 07:11:28;;;;;;;2.93;1.13;;;35.00;47.60;;;;;;5016502;28;20975;-74
2022/06/23 07:14:14;;;;;;;5.57;2.10;;;35.00;47.70;;;;;;5033317;28;20659;-74
2022/06/23 07:16:55;;;;;;;2.20;1.27;;;34.90;47.50;;;;;;5034928;28;20576;-75
2022/06/23 07:19:51;;;;;;;3.10;1.50;;;35.00;48.20;;;;;;5033796;28;20973;-75
2022/06/23 07:22:21;;;;;;;3.97;1.17;;;35.20;47.80;;;;;;5034384;28;20572;-75
2022/06/23 07:24:51;;;;;;;3.60;1.37;;;35.60;48.00;;;;;;5050320;28;20579;-75
2022/06/23 07:27:33;;;;;;;5.37;1.70;;;36.00;47.30;;;;;;5034922;28;20560;-75
2022/06/23 07:30:30;;;;;;;4.03;1.43;;;36.20;47.60;;;;;;5034607;28;20658;-75
2022/06/23 07:33:11;;;;;;;4.57;1.60;;;36.50;47.30;;;;;;5033209;28;20623;-74
2022/06/23 07:35:49;;;;;;;3.20;2.10;;;36.80;46.70;;;;;;5034835;28;20928;-76
2022/06/23 07:38:32;;;;;;;2.23;1.30;;;37.10;46.00;;;;;;5034880;28;20568;-75
2022/06/23 07:40:58;;;;;;;5.30;1.43;;;37.10;45.90;;;;;;5032860;28;20616;-74
2022/06/23 07:43:31;;;;;;;2.77;1.50;;;37.30;45.80;;;;;;5032931;28;20580;-74
2022/06/23 07:46:01;;;;;;;3.73;1.57;;;37.30;45.60;;;;;;5035436;28;20185;-75
2022/06/23 07:48:31;;;;;;;3.40;1.40;;;37.50;45.70;;;;;;5033934;28;20580;-75
2022/06/23 07:50:58;;;;;;;4.87;1.93;;;37.80;46.20;;;;;;5033367;28;21192;-75
2022/06/23 07:53:44;;;;;;;3.50;1.30;;;38.00;45.10;;;;;;5017369;28;20975;-76
2022/06/23 07:56:14;;;;;;;2.83;2.07;;;38.10;44.70;;;;;;5034467;28;20572;-75
2022/06/23 07:58:42;;;;;;;4.13;2.13;;;38.10;44.10;;;;;;5032479;28;20604;-75
2022/06/23 08:01:23;;;;;;;2.90;1.57;;;38.20;43.70;;;;;;5032028;28;20600;-75
2022/06/23 08:03:57;;;;;;;5.20;1.37;;;38.50;44.60;;;;;;5031666;28;20731;-75
2022/06/23 08:06:24;;;;;;;6.00;2.00;;;38.80;44.00;;;;;;5033314;28;20564;-75
2022/06/23 08:08:56;;;;;;;6.67;2.47;;;38.80;44.10;;;;;;5033563;28;20572;-76
2022/06/23 08:14:30;;;;;;;6.17;2.07;;;38.90;43.80;;;;;;5034408;28;20612;-74
2022/06/23 08:16:55;;;;;;;2.80;1.80;;;39.20;43.30;;;;;;5027155;28;20584;-74
2022/06/23 08:19:56;;;;;;;3.03;1.53;;;39.20;43.20;;;;;;5031960;28;20639;-74
2022/06/23 08:22:27;;;;;;;7.13;1.53;;;39.30;43.20;;;;;;5038098;28;20169;-75
2022/06/23 08:24:57;;;;;;;8.90;2.33;;;39.50;42.70;;;;;;5044180;28;20604;-81
2022/06/23 08:27:28;;;;;;;5.77;1.97;;;39.60;42.00;;;;;;5045876;28;20590;-80
2022/06/23 08:30:05;;;;;;;5.00;2.20;;;39.40;41.80;;;;;;5061940;28;20690;-81
2022/06/23 08:32:32;;;;;;;9.63;2.20;;;39.20;41.80;;;;;;5063012;28;20897;-81
2022/06/23 08:35:14;;;;;;;2.83;1.73;;;39.00;41.90;;;;;;5060864;28;20572;-81
2022/06/23 08:37:49;;;;;;;4.20;1.70;;;38.70;40.70;;;;;;5061109;28;20929;-81
2022/06/23 08:40:18;;;;;;;4.67;2.33;;;38.40;41.10;;;;;;5054051;28;20964;-81
2022/06/23 08:43:22;;;;;;;3.13;1.97;;;38.00;41.10;;;;;;5055297;28;20556;-80
2022/06/23 08:45:56;;;;;;;2.03;1.47;;;37.80;41.70;;;;;;5027800;28;20961;-80
2022/06/23 08:48:29;;;;;;;5.00;1.60;;;37.80;41.70;;;;;;5055166;28;20571;-82
2022/06/23 08:51:15;;;;;;;4.00;2.03;;;37.70;41.90;;;;;;5058618;28;20612;-82
2022/06/23 08:54:01;;;;;;;3.30;1.83;;;37.80;42.30;;;;;;5052543;28;20630;-81
2022/06/23 08:56:36;;;;;;;3.80;2.47;;;37.80;41.80;;;;;;5068081;28;20583;-81
2022/06/23 08:59:10;;;;;;;2.37;1.80;;;37.80;41.70;;;;;;5061417;28;20571;-80
2022/06/23 09:01:56;;;;;;;4.13;2.13;;;37.70;40.90;;;;;;5064404;28;21305;-81
2022/06/23 09:04:41;;;;;;;6.53;1.90;;;37.40;40.30;;;;;;5064914;28;20617;-81
2022/06/23 09:07:25;;;;;;;4.47;1.97;;;37.20;41.50;;;;;;5054788;28;20594;-81
2022/06/23 09:10:04;;;;;;;2.77;1.60;;;37.10;41.40;;;;;;5056039;28;20701;-81
2022/06/23 09:12:53;;;;;;;3.60;1.53;;;37.20;42.30;;;;;;5052893;28;20610;-80
2022/06/23 09:15:43;;;;;;;4.43;1.97;;;37.60;42.20;;;;;;5066726;28;20656;-80
2022/06/23 09:18:22;;;;;;;3.07;1.67;;;37.80;41.40;;;;;;5056049;28;20563;-81
2022/06/23 09:20:59;;;;;;;3.27;1.73;;;37.90;40.80;;;;;;5070410;28;20642;-82
2022/06/23 09:23:55;;;;;;;5.20;2.13;;;38.10;40.70;;;;;;5050511;28;20579;-83
2022/06/23 09:26:58;;;;;;;2.40;1.63;;;38.00;40.70;;;;;;5020602;28;20571;-83
2022/06/23 09:30:02;;;;;;;3.07;1.53;;;38.00;40.30;;;;;;5056051;28;20578;-81
2022/06/23 09:32:58;;;;;;;3.77;1.77;;;38.20;40.30;;;;;;5020321;28;20614;-79
2022/06/23 09:35:49;;;;;;;2.73;1.60;;;38.50;39.90;;;;;;5052299;28;20594;-80
2022/06/23 09:38:24;;;;;;;1.97;1.60;;;38.30;38.30;;;;;;5053794;28;21403;-79
2022/06/23 09:41:16;;;;;;;4.20;1.83;;;38.30;38.50;;;;;;5052942;28;20635;-80
2022/06/23 09:44:01;;;;;;;4.23;1.73;;;38.10;38.30;;;;;;5055034;28;20958;-81
2022/06/23 09:46:50;;;;;;;3.43;1.53;;;38.10;38.40;;;;;;5052631;28;20571;-79
2022/06/23 09:49:49;;;;;;;3.07;1.53;;;38.00;38.30;;;;;;5010349;28;20579;-78
2022/06/23 09:52:40;;;;;;;3.70;1.63;;;38.20;38.60;;;;;;5059107;28;20559;-81
2022/06/23 09:55:31;;;;;;;1.93;1.30;;;38.10;39.20;;;;;;5077725;28;20639;-81
2022/06/23 09:58:00;;;;;;;4.00;2.20;;;38.50;39.60;;;;;;5070196;28;20556;-80
2022/06/23 10:00:33;;;;;;;2.80;2.27;;;38.90;39.00;;;;;;5075408;28;20799;-80
2022/06/23 10:03:38;;;;;;;3.70;1.80;;;39.10;38.40;;;;;;5058689;28;20567;-79
2022/06/23 10:06:28;;;;;;;2.00;1.73;;;39.30;38.40;;;;;;5062694;28;20579;-81
2022/06/23 10:09:18;;;;;;;3.13;2.10;;;39.30;38.70;;;;;;5037435;28;20581;-81
2022/06/23 10:11:49;;;;;;;3.30;1.73;;;39.70;39.10;;;;;;5061218;28;20607;-81
2022/06/23 10:14:27;;;;;;;2.37;1.90;;;39.90;37.20;;;;;;5037830;28;20711;-82
2022/06/23 10:16:58;;;;;;;2.83;1.60;;;39.60;36.80;;;;;;5036625;28;20584;-82
2022/06/23 10:19:36;;;;;;;2.70;1.83;;;39.40;36.70;;;;;;5001612;28;20603;-82
2022/06/23 10:22:23;;;;;;;3.10;2.13;;;39.10;36.70;;;;;;5002348;28;20584;-82
2022/06/23 10:25:31;;;;;;;3.07;1.80;;;39.00;36.50;;;;;;5034559;28;20612;-82
2022/06/23 10:28:16;;;;;;;2.83;1.80;;;38.70;36.50;;;;;;5036819;28;20583;-82
2022/06/23 10:30:59;;;;;;;2.80;1.43;;;38.30;36.40;;;;;;5018774;28;20612;-82
2022/06/23 10:33:51;;;;;;;3.20;1.90;;;38.20;37.30;;;;;;5017388;28;21067;-82
2022/06/23 10:36:37;;;;;;;6.10;1.90;;;38.00;37.70;;;;;;5035332;28;20947;-82
2022/06/23 10:39:26;;;;;;;6.93;1.70;;;38.10;38.20;;;;;;5013754;28;21111;-83
2022/06/23 10:42:07;;;;;;;5.17;1.77;;;38.10;37.80;;;;;;5042775;22;20680;-74
2022/06/23 10:45:02;;;;;;;2.67;1.70;;;38.00;37.50;;;;;;5014478;28;20620;-74
2022/06/23 10:47:58;;;;;;;2.83;2.30;;;38.20;37.90;;;;;;5020736;28;20613;-74
2022/06/23 10:50:29;;;;;;;2.73;1.77;;;38.30;37.50;;;;;;5021773;28;20694;-74
2022/06/23 10:53:01;;;;;;;2.13;1.73;;;38.30;38.00;;;;;;5010291;28;20651;-74
2022/06/23 10:55:54;;;;;;;2.97;1.60;;;38.50;38.10;;;;;;5010982;28;20581;-74
2022/06/23 10:59:01;;;;;;;2.10;1.30;;;38.90;38.40;;;;;;4994086;28;21187;-73
2022/06/23 11:01:33;;;;;;;2.87;1.23;;;39.20;36.80;;;;;;5011381;28;20561;-74
2022/06/23 11:04:26;;;;;;;2.80;1.60;;;39.30;37.10;;;;;;5011898;28;20663;-74
2022/06/23 11:07:20;;;;;;;4.70;2.13;;;39.30;36.50;;;;;;5029393;28;20708;-75
2022/06/23 11:09:58;;;;;;;4.10;1.53;;;39.40;35.50;;;;;;5012039;28;20585;-74
2022/06/23 11:12:58;;;;;;;3.50;1.50;;;39.40;36.10;;;;;;5028920;28;20633;-74
2022/06/23 11:15:51;;;;;;;4.50;1.27;;;39.30;36.00;;;;;;5045055;28;20580;-73
2022/06/23 11:18:53;;;;;;;3.40;1.40;;;39.40;36.30;;;;;;5030100;28;20618;-76
2022/06/23 11:21:41;;;;;;;3.40;1.83;;;39.50;35.30;;;;;;5025988;28;20893;-77
2022/06/23 11:24:25;;;;;;;3.77;1.80;;;39.50;36.10;;;;;;5015147;28;20576;-76
2022/06/23 11:27:23;;;;;;;2.97;1.43;;;39.40;35.80;;;;;;4993638;28;20566;-77
2022/06/23 11:30:02;;;;;;;3.47;1.60;;;39.20;36.00;;;;;;5010273;28;20566;-76
2022/06/23 11:32:39;;;;;;;4.70;1.77;;;39.30;36.30;;;;;;5026136;28;20691;-76
2022/06/23 11:35:33;;;;;;;3.23;1.57;;;39.30;36.00;;;;;;4994977;28;20644;-76
2022/06/23 11:38:19;;;;;;;2.90;1.33;;;39.00;36.30;;;;;;4995328;28;20585;-77
2022/06/23 11:41:01;;;;;;;3.37;1.70;;;39.00;37.10;;;;;;4994224;28;20562;-77
2022/06/23 11:43:55;;;;;;;2.93;1.70;;;39.10;36.80;;;;;;4994673;28;20628;-76
2022/06/23 11:46:42;;;;;;;5.03;1.57;;;38.90;36.50;;;;;;4995083;28;21180;-74
2022/06/23 11:49:32;;;;;;;3.00;1.80;;;38.70;36.60;;;;;;4994940;28;20565;-73
2022/06/23 11:52:07;;;;;;;3.90;2.57;;;38.60;37.00;;;;;;5025979;28;20577;-72
2022/06/23 11:54:46;;;;;;;2.63;1.80;;;38.50;36.90;;;;;;4994879;28;20670;-75
2022/06/23 11:57:18;;;;;;;3.10;2.07;;;38.20;37.00;;;;;;4994966;28;20569;-74
2022/06/23 12:00:03;;;;;;;2.80;1.40;;;38.10;37.50;;;;;;4994535;28;20588;-73
2022/06/23 12:02:59;;;;;;;6.97;2.20;;;37.90;38.00;;;;;;4994248;28;21176;-73
2022/06/23 12:05:38;;;;;;;4.03;2.43;;;37.90;39.20;;;;;;4994305;28;20577;-73
2022/06/23 12:08:36;;;;;;;4.57;2.33;;;37.80;38.80;;;;;;5025889;28;20570;-76
2022/06/23 12:11:03;;;;;;;3.40;1.40;;;37.60;38.80;;;;;;5000748;28;20681;-76
2022/06/23 12:13:32;;;;;;;4.33;2.10;;;37.60;38.90;;;;;;5011943;28;20668;-76
2022/06/23 12:16:00;;;;;;;4.43;1.93;;;37.40;39.00;;;;;;5012526;28;20582;-77
2022/06/23 12:18:34;;;;;;;5.03;2.40;;;37.40;39.20;;;;;;5013527;28;20952;-76
2022/06/23 12:21:25;;;;;;;3.27;1.97;;;37.30;39.80;;;;;;5012564;28;20577;-76
2022/06/23 12:24:00;;;;;;;2.17;1.47;;;37.30;39.60;;;;;;5013318;28;20627;-76
2022/06/23 12:26:32;;;;;;;4.07;2.50;;;37.30;39.70;;;;;;5013427;28;21153;-75
2022/06/23 12:29:13;;;;;;;4.27;2.33;;;37.20;39.70;;;;;;5013508;28;20633;-76
2022/06/23 12:32:02;;;;;;;3.60;1.83;;;37.20;39.50;;;;;;5011290;28;21024;-75
2022/06/23 12:34:56;;;;;;;3.50;1.70;;;37.10;39.30;;;;;;5011671;28;21155;-77
2022/06/23 12:37:32;;;;;;;6.20;1.83;;;37.00;39.40;;;;;;5013067;28;20596;-75
2022/06/23 12:40:04;;;;;;;4.23;1.43;;;37.10;40.10;;;;;;5011962;28;21038;-75
2022/06/23 12:42:38;;;;;;;3.53;1.80;;;37.10;39.30;;;;;;5012392;28;20616;-76
2022/06/23 12:45:23;;;;;;;4.70;1.83;;;36.90;39.00;;;;;;5013080;28;20664;-75
2022/06/23 12:48:14;;;;;;;2.90;2.17;;;36.60;39.00;;;;;;5011561;28;20569;-77
2022/06/23 12:50:48;;;;;;;4.27;2.40;;;36.40;38.90;;;;;;5012162;28;20574;-77
2022/06/23 12:53:53;;;;;;;4.03;1.80;;;36.10;40.20;;;;;;5012792;28;21027;-75
2022/06/23 12:56:33;;;;;;;5.60;2.20;;;35.70;40.50;;;;;;5005021;28;20676;-77
2022/06/23 12:59:09;;;;;;;4.53;2.30;;;35.50;40.70;;;;;;5013051;28;21012;-77
2022/06/23 13:02:03;;;;;;;5.43;2.47;;;35.10;41.90;;;;;;5011023;28;20936;-77
2022/06/23 13:04:28;;;;;;;5.87;2.50;;;35.00;42.00;;;;;;5012822;28;20713;-77
2022/06/23 13:07:21;;;;;;;4.30;2.30;;;34.90;42.00;;;;;;5013159;28;20676;-76
2022/06/23 13:10:05;;;;;;;11.03;2.57;;;34.80;42.80;;;;;;5012544;28;20172;-76
2022/06/23 13:12:49;;;;;;;5.53;2.30;;;34.70;42.10;;;;;;5012848;28;20618;-76
2022/06/23 13:15:44;;;;;;;2.97;1.87;;;34.60;42.50;;;;;;5012760;28;21033;-76
2022/06/23 13:18:23;;;;;;;4.10;2.30;;;34.40;42.90;;;;;;5012834;28;20662;-75
2022/06/23 13:20:58;;;;;;;7.10;3.33;;;34.40;42.20;;;;;;5011868;28;20577;-75
2022/06/23 13:23:34;;;;;;;9.80;3.13;;;34.30;43.10;;;;;;5011233;28;20613;-75
2022/06/23 13:26:15;;;;;;;4.83;2.07;;;34.20;43.40;;;;;;5012513;28;20595;-75
2022/06/23 13:28:46;;;;;;;4.00;1.93;;;34.20;43.60;;;;;;5012831;28;20659;-77
2022/06/23 13:31:28;;;;;;;3.23;2.10;;;34.20;43.30;;;;;;5011651;28;20671;-74
2022/06/23 13:34:16;;;;;;;6.80;2.60;;;34.20;43.40;;;;;;5012564;28;20631;-75
2022/06/23 13:37:15;;;;;;;5.67;2.67;;;34.10;43.80;;;;;;5012657;28;20569;-75
2022/06/23 13:40:16;;;;;;;4.87;2.07;;;34.00;44.00;;;;;;5002715;28;21022;-76
2022/06/23 13:42:55;;;;;;;6.30;2.43;;;33.80;44.30;;;;;;5012140;28;20634;-75
2022/06/23 13:45:57;;;;;;;3.00;2.50;;;33.80;44.30;;;;;;5012414;28;20576;-77
2022/06/23 13:48:46;;;;;;;6.60;2.20;;;33.70;44.40;;;;;;5008011;28;20613;-77
2022/06/23 13:51:34;;;;;;;5.30;1.40;;;33.80;45.30;;;;;;5012294;28;21002;-76
2022/06/23 13:54:16;;;;;;;3.70;2.37;;;33.90;44.70;;;;;;5004622;28;20699;-76
2022/06/23 13:56:53;;;;;;;6.43;2.50;;;34.00;44.60;;;;;;5011733;28;20579;-76
2022/06/23 13:59:25;;;;;;;6.63;2.20;;;34.00;44.30;;;;;;5011607;28;20590;-75
2022/06/23 14:02:10;;;;;;;2.97;1.93;;;34.10;44.10;;;;;;5009669;28;20570;-75
2022/06/23 14:04:41;;;;;;;4.07;1.50;;;33.90;44.10;;;;;;5010324;28;20582;-75